Time;durP1;ratioP1;P1;durP2;ratioP2;P2;SDS_P1;SDS_P2;PMS_P1;PMS_P2;Temp;Humidity;BMP_temperature;BMP_pressure;BME280_temperature;BME280_humidity;BME280_pressure;Samples;Min_cycle;Max_cycle;Signal;HPM_P1;HPM_P2
2023/03/10 00:00:29;0.00;0.00;0.62;0.00;0.00;0.62;1.90;1.30;;;20.00;21.00;;;;;;2251423;61;20410;-56
2023/03/10 00:03:14;0.00;0.00;0.62;0.00;0.00;0.62;2.20;1.60;;;20.00;21.00;;;;;;2251896;61;20960;-57
2023/03/10 00:05:58;0.00;0.00;0.62;0.00;0.00;0.62;1.87;1.10;;;20.00;21.00;;;;;;2251274;61;20770;-54
2023/03/10 00:08:44;0.00;0.00;0.62;0.00;0.00;0.62;1.80;1.30;;;20.00;21.00;;;;;;2252036;61;20358;-51
2023/03/10 00:11:30;0.00;0.00;0.62;0.00;0.00;0.62;2.10;1.40;;;20.00;21.00;;;;;;2252265;61;20359;-53
2023/03/10 00:14:15;0.00;0.00;0.62;0.00;0.00;0.62;1.80;1.30;;;20.00;21.00;;;;;;2250934;61;20399;-54
2023/03/10 00:17:00;0.00;0.00;0.62;0.00;0.00;0.62;2.00;1.60;;;20.00;21.00;;;;;;2252148;61;20386;-54
2023/03/10 00:19:45;0.00;0.00;0.62;0.00;0.00;0.62;1.90;1.33;;;20.00;21.00;;;;;;2251708;61;20494;-54
2023/03/10 00:22:29;0.00;0.00;0.62;0.00;0.00;0.62;1.90;1.30;;;20.00;21.00;;;;;;2251787;61;20386;-52
2023/03/10 00:25:14;0.00;0.00;0.62;0.00;0.00;0.62;1.90;1.40;;;20.00;21.00;;;;;;2252269;61;20453;-52
2023/03/10 00:28:00;0.00;0.00;0.62;0.00;0.00;0.62;2.00;1.37;;;20.00;21.00;;;;;;2251797;61;20347;-54
2023/03/10 00:30:55;0.00;0.00;0.62;0.00;0.00;0.62;1.70;1.40;;;20.00;21.00;;;;;;2251646;61;20447;-51
2023/03/10 00:33:40;0.00;0.00;0.62;0.00;0.00;0.62;1.70;1.20;;;20.00;21.00;;;;;;2251981;61;20429;-55
2023/03/10 00:36:27;0.00;0.00;0.62;0.00;0.00;0.62;2.00;1.33;;;20.00;21.00;;;;;;2251537;61;20413;-55
2023/03/10 00:39:11;0.00;0.00;0.62;0.00;0.00;0.62;1.70;1.20;;;20.00;21.00;;;;;;2251968;61;20410;-56
2023/03/10 00:41:56;0.00;0.00;0.62;0.00;0.00;0.62;2.00;1.40;;;20.00;21.00;;;;;;2251612;61;20498;-56
2023/03/10 00:44:42;0.00;0.00;0.62;0.00;0.00;0.62;1.83;1.10;;;20.00;21.00;;;;;;2251597;61;20407;-57
2023/03/10 00:47:27;0.00;0.00;0.62;0.00;0.00;0.62;1.80;1.40;;;20.00;21.00;;;;;;2252263;61;20897;-55
2023/03/10 00:50:13;0.00;0.00;0.62;0.00;0.00;0.62;1.87;1.43;;;20.00;21.00;;;;;;2250945;61;20382;-51
2023/03/10 00:52:57;0.00;0.00;0.62;0.00;0.00;0.62;1.60;1.27;;;20.00;21.00;;;;;;2251821;61;20410;-54
2023/03/10 00:55:42;0.00;0.00;0.62;0.00;0.00;0.62;1.70;1.10;;;20.00;21.00;;;;;;2252134;61;20355;-53
2023/03/10 00:58:28;0.00;0.00;0.62;0.00;0.00;0.62;1.70;1.20;;;20.00;21.00;;;;;;2251605;61;20459;-53
2023/03/10 01:01:17;0.00;0.00;0.62;0.00;0.00;0.62;1.40;0.90;;;20.00;21.00;;;;;;2251354;61;20374;-51
2023/03/10 01:04:05;0.00;0.00;0.62;0.00;0.00;0.62;1.90;1.13;;;20.00;21.00;;;;;;2251150;61;20391;-53
2023/03/10 01:06:50;0.00;0.00;0.62;0.00;0.00;0.62;1.60;1.10;;;20.00;21.00;;;;;;2251753;61;20358;-54
2023/03/10 01:09:35;0.00;0.00;0.62;0.00;0.00;0.62;1.87;1.30;;;20.00;21.00;;;;;;2252285;61;20430;-50
2023/03/10 01:12:20;0.00;0.00;0.62;0.00;0.00;0.62;1.77;1.10;;;20.00;21.00;;;;;;2252504;61;20362;-54
2023/03/10 01:15:07;0.00;0.00;0.62;0.00;0.00;0.62;1.53;0.90;;;20.00;21.10;;;;;;2252432;61;20410;-54
2023/03/10 01:17:53;0.00;0.00;0.62;0.00;0.00;0.62;1.37;0.97;;;20.00;21.00;;;;;;2252611;61;20450;-50
2023/03/10 01:20:41;0.00;0.00;0.62;0.00;0.00;0.62;1.37;0.90;;;20.00;21.00;;;;;;2251333;61;20363;-51
2023/03/10 01:23:27;0.00;0.00;0.62;0.00;0.00;0.62;1.50;0.90;;;20.00;21.00;;;;;;2252592;61;20418;-53
2023/03/10 01:26:12;0.00;0.00;0.62;0.00;0.00;0.62;1.40;0.90;;;20.00;21.00;;;;;;2252749;61;20374;-53
2023/03/10 01:28:57;0.00;0.00;0.62;0.00;0.00;0.62;2.20;1.20;;;20.00;21.00;;;;;;2251558;61;20563;-54
2023/03/10 01:31:42;0.00;0.00;0.62;0.00;0.00;0.62;1.50;0.97;;;20.00;21.00;;;;;;2252368;61;20367;-51
2023/03/10 01:34:28;0.00;0.00;0.62;0.00;0.00;0.62;1.83;1.13;;;20.00;21.00;;;;;;2251801;61;20890;-51
2023/03/10 01:37:13;0.00;0.00;0.62;0.00;0.00;0.62;1.37;1.00;;;20.00;21.10;;;;;;2252414;61;20447;-57
2023/03/10 01:40:00;0.00;0.00;0.62;0.00;0.00;0.62;1.63;1.27;;;20.00;21.10;;;;;;2251991;61;20443;-54
2023/03/10 01:42:45;0.00;0.00;0.62;0.00;0.00;0.62;1.70;1.20;;;20.00;21.00;;;;;;2251932;61;20390;-55
2023/03/10 01:46:29;0.00;0.00;0.62;0.00;0.00;0.62;1.40;0.90;;;20.00;21.00;;;;;;2252450;61;20903;-51
2023/03/10 01:49:32;0.00;0.00;0.62;0.00;0.00;0.62;1.60;1.00;;;20.00;21.00;;;;;;2251705;61;20363;-51
2023/03/10 01:52:20;0.00;0.00;0.62;0.00;0.00;0.62;1.70;1.03;;;20.00;21.10;;;;;;2252378;61;20371;-51
2023/03/10 01:55:12;0.00;0.00;0.62;0.00;0.00;0.62;1.50;0.97;;;20.00;21.10;;;;;;2252208;61;20856;-57
2023/03/10 01:57:57;0.00;0.00;0.62;0.00;0.00;0.62;1.60;1.10;;;20.00;21.10;;;;;;2251609;61;20896;-55
2023/03/10 02:00:43;0.00;0.00;0.62;0.00;0.00;0.62;1.37;0.90;;;20.00;21.10;;;;;;2252386;61;20458;-52
2023/03/10 02:03:33;0.00;0.00;0.62;0.00;0.00;0.62;1.97;1.20;;;19.90;21.00;;;;;;2251894;61;20482;-52
2023/03/10 02:06:22;0.00;0.00;0.62;0.00;0.00;0.62;1.83;1.17;;;19.90;21.00;;;;;;2251851;61;20991;-50
2023/03/10 02:09:09;0.00;0.00;0.62;0.00;0.00;0.62;1.67;1.37;;;19.90;21.00;;;;;;2252016;61;20375;-50
2023/03/10 02:11:57;0.00;0.00;0.62;0.00;0.00;0.62;1.63;1.03;;;20.00;21.10;;;;;;2251898;61;20459;-50
2023/03/10 02:14:44;0.00;0.00;0.62;0.00;0.00;0.62;1.53;0.90;;;20.00;21.10;;;;;;2252595;61;20378;-52
2023/03/10 02:17:29;0.00;0.00;0.62;0.00;0.00;0.62;1.30;0.80;;;19.90;21.00;;;;;;2252217;61;20364;-52
2023/03/10 02:20:28;0.00;0.00;0.62;0.00;0.00;0.62;1.50;1.00;;;19.90;21.00;;;;;;2250960;61;20367;-51
2023/03/10 02:23:19;0.00;0.00;0.62;0.00;0.00;0.62;1.70;0.90;;;19.90;21.00;;;;;;2252494;61;20442;-50
2023/03/10 02:26:13;0.00;0.00;0.62;0.00;0.00;0.62;1.70;1.00;;;20.00;21.10;;;;;;2252263;61;20370;-54
2023/03/10 02:29:02;0.00;0.00;0.62;0.00;0.00;0.62;1.60;1.17;;;19.90;21.00;;;;;;2252146;61;20934;-49
2023/03/10 02:31:47;0.00;0.00;0.62;0.00;0.00;0.62;1.50;1.00;;;19.90;21.00;;;;;;2252629;61;20362;-58
2023/03/10 02:34:17;0.00;0.00;0.62;0.00;0.00;0.62;1.43;1.10;;;19.90;21.00;;;;;;2251557;61;20900;-55
2023/03/10 02:36:43;0.00;0.00;0.62;0.00;0.00;0.62;1.50;0.90;;;20.00;21.10;;;;;;2252260;61;20838;-61
2023/03/10 02:39:10;0.00;0.00;0.62;0.00;0.00;0.62;1.40;0.80;;;19.90;21.00;;;;;;2251812;61;20451;-49
2023/03/10 02:41:38;0.00;0.00;0.62;0.00;0.00;0.62;1.80;1.00;;;19.90;21.00;;;;;;2251710;61;20765;-50
2023/03/10 02:44:12;0.00;0.00;0.62;0.00;0.00;0.62;1.60;1.00;;;19.90;21.00;;;;;;2248031;61;20395;-52
2023/03/10 02:46:38;0.00;0.00;0.62;0.00;0.00;0.62;1.40;0.90;;;19.90;21.00;;;;;;2252437;61;20400;-51
2023/03/10 02:49:09;0.00;0.00;0.62;0.00;0.00;0.62;1.43;0.70;;;19.90;21.00;;;;;;2251259;61;20363;-55
2023/03/10 02:51:42;0.00;0.00;0.62;0.00;0.00;0.62;1.20;0.80;;;20.00;21.10;;;;;;2252224;61;20363;-50
2023/03/10 02:54:13;0.00;0.00;0.62;0.00;0.00;0.62;1.50;0.83;;;20.00;21.00;;;;;;2251403;61;20386;-53
2023/03/10 02:56:41;0.00;0.00;0.62;0.00;0.00;0.62;1.60;0.90;;;19.90;21.00;;;;;;2251254;61;20430;-52
2023/03/10 02:59:10;0.00;0.00;0.62;0.00;0.00;0.62;1.30;0.70;;;20.00;21.00;;;;;;2251633;61;20454;-52
2023/03/10 03:01:41;0.00;0.00;0.62;0.00;0.00;0.62;1.40;0.90;;;20.00;21.00;;;;;;2251957;61;20446;-53
2023/03/10 03:04:07;0.00;0.00;0.62;0.00;0.00;0.62;1.40;0.80;;;19.90;21.00;;;;;;2251080;61;20391;-57
2023/03/10 03:06:34;0.00;0.00;0.62;0.00;0.00;0.62;1.57;1.00;;;20.00;21.00;;;;;;2252453;61;20392;-57
2023/03/10 03:09:01;0.00;0.00;0.62;0.00;0.00;0.62;1.67;1.10;;;20.00;21.00;;;;;;2251347;61;20993;-50
2023/03/10 03:11:29;0.00;0.00;0.62;0.00;0.00;0.62;1.50;0.90;;;20.00;21.00;;;;;;2251330;61;20366;-53
2023/03/10 03:13:55;0.00;0.00;0.62;0.00;0.00;0.62;1.40;1.03;;;19.90;21.00;;;;;;2251905;61;20827;-52
2023/03/10 03:16:24;0.00;0.00;0.62;0.00;0.00;0.62;1.40;0.90;;;20.00;21.00;;;;;;2251838;61;20364;-55
2023/03/10 03:18:54;0.00;0.00;0.62;0.00;0.00;0.62;2.00;0.70;;;19.90;21.00;;;;;;2251028;61;20399;-53
2023/03/10 03:21:48;0.00;0.00;0.62;0.00;0.00;0.62;1.60;1.07;;;20.00;21.00;;;;;;2251941;61;20455;-54
2023/03/10 03:24:34;0.00;0.00;0.62;0.00;0.00;0.62;1.40;0.90;;;20.00;21.00;;;;;;2251748;61;20416;-52
2023/03/10 03:27:20;0.00;0.00;0.62;0.00;0.00;0.62;1.30;0.80;;;20.00;21.00;;;;;;2251381;61;20410;-53
2023/03/10 03:30:08;0.00;0.00;0.62;0.00;0.00;0.62;1.67;1.00;;;19.90;21.00;;;;;;2251971;61;20418;-52
2023/03/10 03:32:55;0.00;0.00;0.62;0.00;0.00;0.62;1.40;0.80;;;19.90;21.00;;;;;;2251642;61;20406;-53
2023/03/10 03:35:42;0.00;0.00;0.62;0.00;0.00;0.62;1.43;0.83;;;19.90;21.50;;;;;;2251794;61;20413;-53
2023/03/10 03:38:27;0.00;0.00;0.62;0.00;0.00;0.62;1.30;0.77;;;19.90;21.00;;;;;;2251861;61;20949;-50
2023/03/10 03:41:14;0.00;0.00;0.62;0.00;0.00;0.62;1.40;0.83;;;19.90;21.00;;;;;;2251263;61;20494;-52
2023/03/10 03:43:59;0.00;0.00;0.62;0.00;0.00;0.62;1.40;0.80;;;19.90;21.00;;;;;;2251570;61;20807;-56
2023/03/10 03:46:45;0.00;0.00;0.62;0.00;0.00;0.62;1.30;0.70;;;19.90;21.00;;;;;;2251923;61;20455;-55
2023/03/10 03:49:33;0.00;0.00;0.62;0.00;0.00;0.62;1.43;0.83;;;19.90;21.00;;;;;;2251023;61;20359;-51
2023/03/10 03:52:19;0.00;0.00;0.62;0.00;0.00;0.62;1.30;0.70;;;19.90;21.00;;;;;;2251909;61;20919;-55
2023/03/10 03:55:06;0.00;0.00;0.62;0.00;0.00;0.62;1.20;0.70;;;19.90;21.00;;;;;;2251339;61;20794;-51
2023/03/10 03:57:51;0.00;0.00;0.62;0.00;0.00;0.62;1.27;0.70;;;19.90;21.00;;;;;;2251214;61;20365;-55
2023/03/10 04:00:38;0.00;0.00;0.62;0.00;0.00;0.62;1.77;0.73;;;19.90;21.00;;;;;;2251559;61;20362;-50
2023/03/10 04:03:26;0.00;0.00;0.62;0.00;0.00;0.62;1.30;0.70;;;19.90;21.00;;;;;;2248276;61;20440;-53
2023/03/10 04:06:13;0.00;0.00;0.62;0.00;0.00;0.62;1.30;0.80;;;19.90;21.00;;;;;;2252216;61;20362;-52
2023/03/10 04:08:58;0.00;0.00;0.62;0.00;0.00;0.62;1.20;0.60;;;19.90;21.00;;;;;;2251455;61;20367;-52
2023/03/10 04:11:45;0.00;0.00;0.62;0.00;0.00;0.62;1.30;0.80;;;19.90;21.00;;;;;;2251317;61;20390;-53
2023/03/10 04:14:30;0.00;0.00;0.62;0.00;0.00;0.62;1.40;0.80;;;19.90;21.00;;;;;;2251763;61;20378;-53
2023/03/10 04:17:15;0.00;0.00;0.62;0.00;0.00;0.62;1.30;0.60;;;19.90;21.00;;;;;;2251252;61;20623;-52
2023/03/10 04:20:03;0.00;0.00;0.62;0.00;0.00;0.62;1.30;0.80;;;19.90;21.00;;;;;;2251081;61;20896;-52
2023/03/10 04:22:50;0.00;0.00;0.62;0.00;0.00;0.62;1.40;0.70;;;19.90;21.00;;;;;;2251691;61;20935;-52
2023/03/10 04:25:40;0.00;0.00;0.62;0.00;0.00;0.62;1.30;0.60;;;19.90;21.00;;;;;;2251050;61;20421;-54
2023/03/10 04:28:25;0.00;0.00;0.62;0.00;0.00;0.62;1.47;0.80;;;19.90;21.00;;;;;;2249129;61;20402;-52
2023/03/10 04:31:15;0.00;0.00;0.62;0.00;0.00;0.62;1.30;0.70;;;19.90;21.00;;;;;;2251740;61;20534;-54
2023/03/10 04:34:00;0.00;0.00;0.62;0.00;0.00;0.62;1.53;0.80;;;19.90;21.00;;;;;;2251260;61;20446;-51
2023/03/10 04:36:45;0.00;0.00;0.62;0.00;0.00;0.62;1.33;0.73;;;19.90;21.00;;;;;;2251745;61;20371;-50
2023/03/10 04:39:32;0.00;0.00;0.62;0.00;0.00;0.62;1.30;0.70;;;19.90;21.00;;;;;;2250867;61;20459;-50
2023/03/10 04:42:17;0.00;0.00;0.62;0.00;0.00;0.62;1.20;0.70;;;19.90;21.00;;;;;;2251578;61;20421;-55
2023/03/10 04:45:04;0.00;0.00;0.62;0.00;0.00;0.62;1.20;0.70;;;19.90;21.00;;;;;;2252497;61;20430;-54
2023/03/10 04:47:48;0.00;0.00;0.62;0.00;0.00;0.62;1.20;0.60;;;19.90;21.00;;;;;;2252148;61;20848;-50
2023/03/10 04:50:34;0.00;0.00;0.62;0.00;0.00;0.62;1.20;0.70;;;19.90;21.00;;;;;;2252120;61;20425;-51
2023/03/10 04:53:19;0.00;0.00;0.62;0.00;0.00;0.62;1.30;0.70;;;19.90;21.00;;;;;;2252323;61;20509;-51
2023/03/10 04:56:07;0.00;0.00;0.62;0.00;0.00;0.62;1.30;0.60;;;19.90;21.00;;;;;;2251588;61;20430;-50
2023/03/10 04:58:55;0.00;0.00;0.62;0.00;0.00;0.62;1.20;0.60;;;19.90;21.00;;;;;;2252264;61;20417;-53
2023/03/10 05:01:41;0.00;0.00;0.62;0.00;0.00;0.62;1.30;0.70;;;19.90;21.00;;;;;;2251880;61;20374;-52
2023/03/10 05:04:25;0.00;0.00;0.62;0.00;0.00;0.62;1.30;0.80;;;19.90;21.00;;;;;;2251977;61;20819;-52
2023/03/10 05:07:12;0.00;0.00;0.62;0.00;0.00;0.62;1.20;0.60;;;19.90;21.60;;;;;;2252404;61;20773;-51
2023/03/10 05:10:05;0.00;0.00;0.62;0.00;0.00;0.62;1.47;0.80;;;19.90;21.00;;;;;;2251339;61;20366;-54
2023/03/10 05:12:52;0.00;0.00;0.62;0.00;0.00;0.62;1.20;0.60;;;19.90;21.00;;;;;;2252257;61;20409;-55
2023/03/10 05:15:38;0.00;0.00;0.62;0.00;0.00;0.62;1.30;0.70;;;19.90;21.00;;;;;;2252161;61;20391;-55
2023/03/10 05:18:23;0.00;0.00;0.62;0.00;0.00;0.62;1.40;0.70;;;19.90;21.00;;;;;;2251976;61;20984;-53
2023/03/10 05:21:10;0.00;0.00;0.62;0.00;0.00;0.62;1.20;0.60;;;19.90;21.00;;;;;;2252071;61;20366;-51
2023/03/10 05:23:55;0.00;0.00;0.62;0.00;0.00;0.62;1.30;0.60;;;19.90;21.00;;;;;;2251767;61;20386;-54
2023/03/10 05:26:41;0.00;0.00;0.62;0.00;0.00;0.62;1.30;0.70;;;19.80;21.00;;;;;;2252137;61;20461;-52
2023/03/10 05:29:28;0.00;0.00;0.62;0.00;0.00;0.62;1.20;0.67;;;19.90;21.00;;;;;;2251896;61;21014;-51
2023/03/10 05:32:19;0.00;0.00;0.62;0.00;0.00;0.62;1.20;0.70;;;19.90;21.00;;;;;;2251597;61;20781;-53
2023/03/10 05:35:07;0.00;0.00;0.62;0.00;0.00;0.62;1.20;0.60;;;19.90;21.00;;;;;;2252038;61;20786;-56
2023/03/10 05:37:54;0.00;0.00;0.62;0.00;0.00;0.62;1.20;0.70;;;19.90;21.00;;;;;;2252186;61;20411;-55
2023/03/10 05:40:40;0.00;0.00;0.62;0.00;0.00;0.62;1.20;0.60;;;19.80;21.00;;;;;;2251763;61;20378;-49
2023/03/10 05:43:25;0.00;0.00;0.62;0.00;0.00;0.62;1.20;0.60;;;19.80;21.00;;;;;;2252033;61;20914;-62
2023/03/10 05:46:12;0.00;0.00;0.62;0.00;0.00;0.62;1.30;0.70;;;19.80;21.00;;;;;;2252482;61;20382;-50
2023/03/10 05:49:02;0.00;0.00;0.62;0.00;0.00;0.62;1.30;0.70;;;19.80;21.00;;;;;;2251729;61;20780;-52
2023/03/10 05:51:47;0.00;0.00;0.62;0.00;0.00;0.62;1.20;0.60;;;19.80;21.00;;;;;;2252051;61;20375;-55
2023/03/10 05:54:33;0.00;0.00;0.62;0.00;0.00;0.62;1.20;0.70;;;19.90;21.10;;;;;;2251240;61;20978;-52
2023/03/10 05:57:17;0.00;0.00;0.62;0.00;0.00;0.62;1.37;0.80;;;19.80;21.00;;;;;;2252196;61;20406;-52
2023/03/10 06:00:03;0.00;0.00;0.62;0.00;0.00;0.62;1.20;0.60;;;19.80;21.00;;;;;;2252206;61;20425;-54
2023/03/10 06:02:59;0.00;0.00;0.62;0.00;0.00;0.62;1.30;0.87;;;19.80;21.00;;;;;;2252108;61;20363;-51
2023/03/10 06:05:44;0.00;0.00;0.62;0.00;0.00;0.62;1.30;0.60;;;19.90;21.00;;;;;;2252716;61;20374;-51
2023/03/10 06:08:29;0.00;0.00;0.62;0.00;0.00;0.62;1.20;0.60;;;19.80;21.00;;;;;;2251865;61;20478;-50
2023/03/10 06:11:14;0.00;0.00;0.62;0.00;0.00;0.62;1.40;0.70;;;19.80;21.00;;;;;;2252180;61;20382;-51
2023/03/10 06:13:59;0.00;0.00;0.62;0.00;0.00;0.62;1.20;0.63;;;19.80;21.00;;;;;;2252507;61;20391;-51
2023/03/10 06:16:49;0.00;0.00;0.62;0.00;0.00;0.62;1.50;0.60;;;19.80;21.00;;;;;;2251396;61;20366;-54
2023/03/10 06:19:36;0.00;0.00;0.62;0.00;0.00;0.62;1.30;0.70;;;19.90;21.00;;;;;;2252221;61;20359;-59
2023/03/10 06:22:21;0.00;0.00;0.62;0.00;0.00;0.62;1.27;0.60;;;19.80;21.00;;;;;;2252569;61;20386;-50
2023/03/10 06:25:07;0.00;0.00;0.62;0.00;0.00;0.62;1.40;0.73;;;19.90;21.00;;;;;;2251982;61;20402;-52
2023/03/10 06:27:51;0.00;0.00;0.62;0.00;0.00;0.62;1.20;0.60;;;19.80;21.00;;;;;;2252664;61;20367;-60
2023/03/10 06:30:36;0.00;0.00;0.62;0.00;0.00;0.62;1.30;0.70;;;19.80;21.00;;;;;;2251810;61;20371;-52
2023/03/10 06:33:22;0.00;0.00;0.62;0.00;0.00;0.62;1.30;0.60;;;19.80;21.00;;;;;;2251854;61;20365;-50
2023/03/10 06:36:10;0.00;0.00;0.62;0.00;0.00;0.62;1.30;0.60;;;19.80;21.00;;;;;;2252658;61;20367;-54
2023/03/10 06:38:55;0.00;0.00;0.62;0.00;0.00;0.62;1.20;0.60;;;19.90;21.00;;;;;;2251506;61;20891;-51
2023/03/10 06:41:40;0.00;0.00;0.62;0.00;0.00;0.62;1.70;0.90;;;19.80;21.00;;;;;;2252367;61;20363;-53
2023/03/10 06:44:24;0.00;0.00;0.62;0.00;0.00;0.62;1.20;0.70;;;19.80;21.00;;;;;;2252353;61;20398;-54
2023/03/10 06:47:09;0.00;0.00;0.62;0.00;0.00;0.62;1.33;0.73;;;19.80;21.00;;;;;;2251979;61;20421;-57
2023/03/10 06:49:54;0.00;0.00;0.62;0.00;0.00;0.62;1.47;0.73;;;19.80;21.00;;;;;;2252291;61;20391;-52
2023/03/10 06:52:41;0.00;0.00;0.62;0.00;0.00;0.62;1.30;0.70;;;19.80;21.00;;;;;;2252026;61;20772;-53
2023/03/10 06:55:26;0.00;0.00;0.62;0.00;0.00;0.62;1.20;0.60;;;19.80;21.00;;;;;;2252361;61;20975;-54
2023/03/10 06:58:11;0.00;0.00;0.62;0.00;0.00;0.62;1.40;0.60;;;19.80;21.00;;;;;;2252577;61;20434;-52
2023/03/10 07:00:56;0.00;0.00;0.62;0.00;0.00;0.62;1.30;0.70;;;19.90;21.00;;;;;;2250955;61;20466;-52
2023/03/10 07:03:41;0.00;0.00;0.62;0.00;0.00;0.62;1.67;0.63;;;19.80;21.50;;;;;;2252367;61;20595;-54
2023/03/10 07:06:26;0.00;0.00;0.62;0.00;0.00;0.62;1.47;0.70;;;19.80;21.00;;;;;;2252487;61;21080;-53
2023/03/10 07:09:13;0.00;0.00;0.62;0.00;0.00;0.62;1.20;0.70;;;19.80;21.00;;;;;;2251415;61;20367;-52
2023/03/10 07:11:58;0.00;0.00;0.62;0.00;0.00;0.62;1.20;0.60;;;19.90;21.00;;;;;;2252318;61;20780;-54
2023/03/10 07:14:42;0.00;0.00;0.62;0.00;0.00;0.62;1.20;0.60;;;19.80;21.50;;;;;;2251973;61;20433;-49
2023/03/10 07:17:27;0.00;0.00;0.62;0.00;0.00;0.62;1.20;0.60;;;19.80;21.00;;;;;;2252161;61;20362;-56
2023/03/10 07:20:12;0.00;0.00;0.62;0.00;0.00;0.62;1.20;0.60;;;19.80;21.00;;;;;;2251853;61;20820;-50
2023/03/10 07:22:57;0.00;0.00;0.62;0.00;0.00;0.62;1.40;0.60;;;19.80;21.00;;;;;;2251839;61;20890;-47
2023/03/10 07:25:43;0.00;0.00;0.62;0.00;0.00;0.62;1.20;0.60;;;19.80;21.00;;;;;;2252494;61;20382;-55
2023/03/10 07:28:28;0.00;0.00;0.62;0.00;0.00;0.62;1.20;0.60;;;19.80;21.00;;;;;;2252440;61;20824;-52
2023/03/10 07:31:14;0.00;0.00;0.62;0.00;0.00;0.62;1.50;0.70;;;19.80;21.00;;;;;;2251042;61;20410;-51
2023/03/10 07:34:00;0.00;0.00;0.62;0.00;0.00;0.62;1.30;0.70;;;19.80;21.00;;;;;;2252151;61;20395;-51
2023/03/10 07:36:45;0.00;0.00;0.62;0.00;0.00;0.62;1.40;0.80;;;19.80;21.00;;;;;;2252079;61;20907;-50
2023/03/10 07:39:30;0.00;0.00;0.62;0.00;0.00;0.62;1.20;0.60;;;19.90;21.10;;;;;;2251154;61;20394;-54
2023/03/10 07:42:16;0.00;0.00;0.62;0.00;0.00;0.62;1.20;0.60;;;19.80;21.00;;;;;;2252054;61;20942;-55
2023/03/10 07:45:01;0.00;0.00;0.62;0.00;0.00;0.62;1.30;0.70;;;19.80;21.00;;;;;;2251219;61;20495;-55
2023/03/10 07:47:46;0.00;0.00;0.62;0.00;0.00;0.62;1.30;0.70;;;19.80;21.00;;;;;;2252390;61;20815;-52
2023/03/10 07:50:31;0.00;0.00;0.62;0.00;0.00;0.62;1.20;0.70;;;19.90;21.10;;;;;;2252095;61;20425;-50
2023/03/10 07:53:15;0.00;0.00;0.62;0.00;0.00;0.62;1.30;0.60;;;19.80;21.00;;;;;;2250999;61;20901;-52
2023/03/10 07:56:04;0.00;0.00;0.62;0.00;0.00;0.62;1.20;0.60;;;19.80;21.00;;;;;;2252485;61;20427;-55
2023/03/10 07:58:50;0.00;0.00;0.62;0.00;0.00;0.62;1.20;0.70;;;19.90;21.10;;;;;;2251992;61;20474;-53
2023/03/10 08:01:35;0.00;0.00;0.62;0.00;0.00;0.62;1.30;0.70;;;19.80;21.00;;;;;;2251878;61;20455;-51
2023/03/10 08:04:19;0.00;0.00;0.62;0.00;0.00;0.62;1.20;0.60;;;19.90;21.10;;;;;;2252177;61;20482;-51
2023/03/10 08:07:05;0.00;0.00;0.62;0.00;0.00;0.62;1.20;0.60;;;19.80;21.00;;;;;;2251927;61;20366;-50
2023/03/10 08:09:50;0.00;0.00;0.62;0.00;0.00;0.62;1.30;0.60;;;19.80;21.00;;;;;;2251869;61;20390;-49
2023/03/10 08:12:35;0.00;0.00;0.62;0.00;0.00;0.62;1.20;0.57;;;19.90;21.20;;;;;;2252578;61;20413;-55
2023/03/10 08:15:22;0.00;0.00;0.62;0.00;0.00;0.62;1.20;0.60;;;19.80;21.00;;;;;;2251424;61;20434;-52
2023/03/10 08:18:08;0.00;0.00;0.62;0.00;0.00;0.62;1.20;0.67;;;19.90;21.10;;;;;;2252004;61;20790;-54
2023/03/10 08:20:53;0.00;0.00;0.62;0.00;0.00;0.62;1.20;0.60;;;19.80;21.00;;;;;;2251733;61;20510;-50
2023/03/10 08:23:38;0.00;0.00;0.62;0.00;0.00;0.62;1.33;0.60;;;19.80;21.00;;;;;;2251811;61;20397;-51
2023/03/10 08:26:22;0.00;0.00;0.62;0.00;0.00;0.62;1.20;0.60;;;19.80;21.10;;;;;;2252259;61;20363;-51
2023/03/10 08:29:07;0.00;0.00;0.62;0.00;0.00;0.62;1.30;0.60;;;19.80;21.00;;;;;;2251529;61;20378;-52
2023/03/10 08:31:53;0.00;0.00;0.62;0.00;0.00;0.62;1.20;0.60;;;19.80;21.00;;;;;;2251806;61;20413;-52
2023/03/10 08:34:37;0.00;0.00;0.62;0.00;0.00;0.62;1.40;0.70;;;19.80;21.00;;;;;;2252310;61;20402;-54
2023/03/10 08:37:22;0.00;0.00;0.62;0.00;0.00;0.62;1.70;0.97;;;19.80;21.00;;;;;;2251638;61;20371;-53
2023/03/10 08:40:09;0.00;0.00;0.62;0.00;0.00;0.62;1.67;0.87;;;19.80;21.00;;;;;;2252175;61;20367;-51
2023/03/10 08:42:54;0.00;0.00;0.62;0.00;0.00;0.62;1.53;1.00;;;19.80;21.00;;;;;;2252176;61;20362;-50
2023/03/10 08:45:39;0.00;0.00;0.62;0.00;0.00;0.62;1.70;1.00;;;19.80;21.10;;;;;;2251877;61;20367;-51
2023/03/10 08:48:25;0.00;0.00;0.62;0.00;0.00;0.62;1.73;0.90;;;19.80;21.10;;;;;;2252214;61;20908;-51
2023/03/10 08:51:11;0.00;0.00;0.62;0.00;0.00;0.62;1.43;0.80;;;19.80;21.10;;;;;;2251752;61;20522;-52
2023/03/10 08:53:56;0.00;0.00;0.62;0.00;0.00;0.62;1.60;0.93;;;19.90;21.20;;;;;;2251801;61;20978;-53
2023/03/10 08:56:41;0.00;0.00;0.62;0.00;0.00;0.62;1.50;0.80;;;19.80;21.10;;;;;;2252061;61;20367;-52
2023/03/10 08:59:26;0.00;0.00;0.62;0.00;0.00;0.62;1.60;1.03;;;19.80;21.10;;;;;;2251375;61;20788;-53
2023/03/10 09:02:10;0.00;0.00;0.62;0.00;0.00;0.62;1.70;1.00;;;19.80;21.10;;;;;;2252255;61;20461;-52
2023/03/10 09:04:57;0.00;0.00;0.62;0.00;0.00;0.62;1.73;0.90;;;19.90;21.20;;;;;;2251686;61;20487;-52
2023/03/10 09:07:41;0.00;0.00;0.62;0.00;0.00;0.62;1.97;1.10;;;19.80;21.10;;;;;;2251691;61;20425;-53
2023/03/10 09:10:26;0.00;0.00;0.62;0.00;0.00;0.62;1.50;0.90;;;19.90;21.20;;;;;;2251618;61;20439;-53
2023/03/10 09:13:11;0.00;0.00;0.62;0.00;0.00;0.62;1.67;1.00;;;19.90;21.20;;;;;;2251964;61;20810;-51
2023/03/10 09:15:55;0.00;0.00;0.62;0.00;0.00;0.62;1.83;1.10;;;19.90;21.20;;;;;;2251907;61;20467;-53
2023/03/10 09:18:40;0.00;0.00;0.62;0.00;0.00;0.62;1.73;1.00;;;19.90;21.20;;;;;;2252034;61;20451;-52
2023/03/10 09:21:29;0.00;0.00;0.62;0.00;0.00;0.62;1.40;0.90;;;19.90;21.20;;;;;;2251043;61;20374;-53
2023/03/10 09:24:14;0.00;0.00;0.62;0.00;0.00;0.62;1.90;1.20;;;19.90;21.20;;;;;;2251732;61;20441;-51
2023/03/10 09:26:59;0.00;0.00;0.62;0.00;0.00;0.62;1.87;1.20;;;19.90;21.20;;;;;;2251921;61;20369;-52
2023/03/10 09:29:43;0.00;0.00;0.62;0.00;0.00;0.62;1.60;1.00;;;19.90;21.20;;;;;;2251692;61;20769;-53
2023/03/10 09:32:28;0.00;0.00;0.62;0.00;0.00;0.62;2.30;0.97;;;19.90;21.20;;;;;;2252637;61;20850;-50
2023/03/10 09:35:12;0.00;0.00;0.62;0.00;0.00;0.62;1.97;1.10;;;19.90;21.20;;;;;;2252418;61;20478;-56
2023/03/10 09:37:59;0.00;0.00;0.62;0.00;0.00;0.62;1.50;0.90;;;19.90;21.20;;;;;;2252364;61;20362;-52
2023/03/10 09:40:48;0.00;0.00;0.62;0.00;0.00;0.62;2.00;1.00;;;19.90;21.70;;;;;;2252341;61;20394;-53
2023/03/10 09:43:37;0.00;0.00;0.62;0.00;0.00;0.62;1.50;0.90;;;19.90;21.20;;;;;;2252215;61;20390;-50
2023/03/10 09:46:28;0.00;0.00;0.62;0.00;0.00;0.62;2.00;1.30;;;19.90;21.20;;;;;;2252714;61;20363;-50
2023/03/10 09:49:21;0.00;0.00;0.62;0.00;0.00;0.62;1.80;1.10;;;19.90;21.20;;;;;;2252375;61;20366;-49
2023/03/10 09:52:22;0.00;0.00;0.62;0.00;0.00;0.62;1.80;1.10;;;19.90;21.20;;;;;;2252125;61;20390;-52
2023/03/10 09:55:19;0.00;0.00;0.62;0.00;0.00;0.62;2.43;1.30;;;19.90;21.20;;;;;;2252373;61;20379;-51
2023/03/10 09:58:07;0.00;0.00;0.62;0.00;0.00;0.62;1.87;1.17;;;19.90;21.20;;;;;;2252414;61;20519;-55
2023/03/10 10:00:53;0.00;0.00;0.62;0.00;0.00;0.62;2.10;1.20;;;19.90;21.20;;;;;;2252237;61;20896;-52
2023/03/10 10:03:43;0.00;0.00;0.62;0.00;0.00;0.62;1.60;1.00;;;19.90;21.20;;;;;;2252627;61;20401;-54
2023/03/10 10:06:32;0.00;0.00;0.62;0.00;0.00;0.62;2.13;1.50;;;19.90;21.20;;;;;;2251836;61;20375;-52
2023/03/10 10:09:26;0.00;0.00;0.62;0.00;0.00;0.62;2.00;1.23;;;19.90;21.20;;;;;;2252334;61;20832;-53
2023/03/10 10:12:15;0.00;0.00;0.62;0.00;0.00;0.62;1.60;1.10;;;19.90;21.20;;;;;;2252168;61;20379;-51
2023/03/10 10:15:13;0.00;0.00;0.62;0.00;0.00;0.62;1.70;1.27;;;19.90;21.20;;;;;;2252170;61;20410;-50
2023/03/10 10:18:12;0.00;0.00;0.62;0.00;0.00;0.62;2.50;1.53;;;19.90;21.20;;;;;;2252159;61;20919;-52
2023/03/10 10:21:00;0.00;0.00;0.62;0.00;0.00;0.62;2.87;2.20;;;19.90;21.20;;;;;;2251582;61;20370;-51
2023/03/10 10:23:48;0.00;0.00;0.62;0.00;0.00;0.62;2.30;1.70;;;19.90;21.20;;;;;;2252352;61;20507;-52
2023/03/10 10:26:33;0.00;0.00;0.62;0.00;0.00;0.62;2.53;1.83;;;19.90;21.20;;;;;;2252752;61;20367;-51
2023/03/10 10:29:22;0.00;0.00;0.62;0.00;0.00;0.62;2.97;1.80;;;19.90;21.20;;;;;;2251874;61;20440;-51
2023/03/10 10:32:10;0.00;0.00;0.62;0.00;0.00;0.62;3.20;2.03;;;19.90;21.20;;;;;;2252527;61;20851;-53
2023/03/10 10:35:12;0.00;0.00;0.62;0.00;0.00;0.62;2.80;2.00;;;19.90;21.20;;;;;;2251954;61;20494;-54
2023/03/10 10:38:00;0.00;0.00;0.62;0.00;0.00;0.62;3.10;2.20;;;19.90;21.20;;;;;;2252619;61;20756;-52
2023/03/10 10:40:49;0.00;0.00;0.62;0.00;0.00;0.62;2.70;2.13;;;19.90;21.20;;;;;;2251967;61;20363;-58
2023/03/10 10:43:41;0.00;0.00;0.62;0.00;0.00;0.62;3.10;2.17;;;19.90;21.20;;;;;;2251329;61;20806;-52
2023/03/10 10:46:29;0.00;0.00;0.62;0.00;0.00;0.62;3.43;2.23;;;19.90;21.20;;;;;;2252210;61;20371;-52
2023/03/10 10:49:22;0.00;0.00;0.62;0.00;0.00;0.62;4.37;3.07;;;20.00;21.30;;;;;;2251737;61;20450;-52
2023/03/10 10:52:20;0.00;0.00;0.62;0.00;0.00;0.62;4.37;2.27;;;19.90;21.30;;;;;;2252283;61;20915;-55